Terminal Aerodrome Forecast
Issued by NWS Wilmington, OH

Current Version | Previous Version | Text Only | Print | Product List | Glossary On
Versions: 1 2 3 4 5 6 7 8 9 10 11 12 13 14 15 16 17 18 19 20 21 22 23 24 25 26 27
000
FTUS41 KILN 241300 AAA
TAFCVG
TAF AMD
KCVG 241333Z 2414/2518 03013KT P6SM SCT015
     FM241400 02010KT P6SM BKN015
     FM241800 02010KT P6SM BKN025
     FM242300 04003KT P6SM SKC
     FM251000 10003KT 5SM BR SKC=

USA.gov is the U.S. government's official web portal to all federal, state and local government web resources and services.